Moku Pahu — WBWK — position and weather

sailwx.info

Track history (hours):
 
Tides and Currents Weather Stations Pressure Air Temp Water Temp Dewpoint Dewpoint Depression Visibility Wind Speed Wind Dir Waves Ship Positions

Moku Pahu

Owner: American Ship Management, LLC., Concord, CA. More information available from US FCC via Universal Licensing System and Coast Guard Vessel Documentation Center.

Last reported at 2017-Feb-15 15:05 UTC. Time now 2017-Feb-22 19:54 UTC.
Position N 48°16' W 125°55'.

Type: Ship. MMSI: 366857000.

Date/timePositionNaut miles runAvg speedWind from/ knotsBaromVisibWave heightAir tempDewpointWater temp
2017-Feb-15 15:05N 48°16' W 125°55'5 9.4
2017-Feb-15 14:32N 48°17' W 125°48'8 8.7
2017-Feb-15 13:33N 48°19' W 125°35'8 8.0
2017-Feb-15 12:32N 48°21' W 125°23'7 7.5
2017-Feb-15 11:33N 48°23' W 125°12'6 6.4
2017-Feb-15 10:33N 48°27' W 125°05'6 6.3
2017-Feb-15 09:33N 48°31' W 124°57'9 9.3
2017-Feb-15 08:33N 48°30' W 124°43'1313.0
2017-Feb-15 07:33N 48°26' W 124°25'1414.1
2017-Feb-15 06:34N 48°20' W 124°06'1413.5
2017-Feb-15 05:33N 48°17' W 123°46'1413.5
2017-Feb-15 04:33N 48°13' W 123°26'5 4.7
2017-Feb-15 03:31N 48°08' W 123°26'0 0.1
2017-Feb-15 02:31N 48°08' W 123°26'0 0.0
2017-Feb-15 01:29N 48°08' W 123°26'0 0.0
2017-Feb-15 00:33N 48°08' W 123°26'0 0.0
2017-Feb-14 23:33N 48°08' W 123°26'0 0.0
2017-Feb-14 22:22N 48°08' W 123°26'0 0.0
2017-Feb-14 21:31N 48°08' W 123°26'0 0.0
2017-Feb-14 20:33N 48°08' W 123°26'2 1.7
2017-Feb-14 19:33N 48°08' W 123°23'7 6.6
2017-Feb-14 18:33N 48°13' W 123°31'9 8.7
2017-Feb-14 17:33N 48°13' W 123°44'1211.3
2017-Feb-14 16:32N 48°15' W 124°01'1212.7
2017-Feb-14 15:33N 48°21' W 124°18'1212.5
2017-Feb-14 14:33N 48°26' W 124°35'1212.4
2017-Feb-14 13:33N 48°29' W 124°53'1110.9
2017-Feb-14 12:33N 48°21' W 125°05'1513.2
2017-Feb-14 11:25N 48°06' W 125°10'1613.2
2017-Feb-14 10:11N 47°51' W 125°17'913.6
2017-Feb-14 09:33N 47°43' W 125°11'1312.9
2017-Feb-14 08:33N 47°32' W 125°02'1313.0
2017-Feb-14 07:33N 47°20' W 124°55'1312.5
2017-Feb-14 06:33N 47°08' W 124°48'1212.4
2017-Feb-14 05:33N 46°57' W 124°39'1211.9
2017-Feb-14 04:33N 46°46' W 124°37'1312.6
2017-Feb-14 03:33N 46°34' W 124°30'1212.5
2017-Feb-14 02:33N 46°23' W 124°22'1212.3
2017-Feb-14 01:33N 46°12' W 124°13'1111.1
2017-Feb-14 00:33N 46°13' W 123°57'10 9.8
2017-Feb-13 23:33N 46°14' W 123°43'1111.1
2017-Feb-13 22:33N 46°16' W 123°27'10 9.6
2017-Feb-13 21:33N 46°09' W 123°17'1110.9
2017-Feb-13 20:33N 46°08' W 123°02'1110.6
2017-Feb-13 19:33N 46°01' W 122°51'1212.0
2017-Feb-13 18:33N 45°49' W 122°48'1110.7
2017-Feb-13 17:33N 45°38' W 122°47'7 6.9
2017-Feb-13 16:33N 45°33' W 122°41'1 0.7
2017-Feb-13 15:30N 45°32' W 122°41'0 0.0
2017-Feb-13 14:33N 45°32' W 122°41'0 0.0
2017-Feb-13 13:31N 45°32' W 122°41'0 0.0
2017-Feb-13 12:32N 45°32' W 122°41'0 0.0
2017-Feb-13 11:32N 45°32' W 122°41'0 0.0
2017-Feb-13 10:33N 45°32' W 122°41'0 0.0
2017-Feb-13 09:34N 45°32' W 122°41'0 0.0
2017-Feb-13 08:31N 45°32' W 122°41'0 0.0
2017-Feb-13 07:32N 45°32' W 122°41'0 0.0
2017-Feb-13 06:29N 45°32' W 122°41'0 0.0
2017-Feb-13 05:33N 45°32' W 122°41'0 0.0
2017-Feb-13 04:31N 45°32' W 122°41'0 0.0
2017-Feb-13 03:25N 45°32' W 122°41'0 0.0
2017-Feb-13 02:32N 45°32' W 122°41'0 0.0
2017-Feb-13 01:33N 45°32' W 122°41'0 0.0
2017-Feb-13 00:33N 45°32' W 122°41'0 0.0
2017-Feb-12 23:31N 45°32' W 122°41'0 0.0
2017-Feb-12 22:32N 45°32' W 122°41'0 0.0
2017-Feb-12 21:32N 45°32' W 122°41'0 0.0
2017-Feb-12 20:33N 45°32' W 122°41'0 0.0
2017-Feb-12 19:31N 45°32' W 122°41'0 0.0
2017-Feb-12 18:31N 45°32' W 122°41'0 0.0
2017-Feb-12 17:32N 45°32' W 122°41'0 0.0
2017-Feb-12 16:33N 45°32' W 122°41'0 0.0
2017-Feb-12 15:33N 45°32' W 122°41'0 0.0
2017-Feb-12 14:31N 45°32' W 122°41'0 0.0
2017-Feb-12 13:32N 45°32' W 122°41'0 0.0
2017-Feb-12 12:29N 45°32' W 122°41'0 0.0
2017-Feb-12 11:33N 45°32' W 122°41'0 0.0
2017-Feb-12 10:28N 45°32' W 122°41'0 0.0
2017-Feb-12 09:31N 45°32' W 122°41'0 0.0
2017-Feb-12 08:32N 45°32' W 122°41'0 0.0
2017-Feb-12 07:26N 45°32' W 122°41'0 0.0
2017-Feb-12 06:33N 45°32' W 122°41'0 0.0
2017-Feb-12 05:31N 45°32' W 122°41'0 0.0
2017-Feb-12 04:31N 45°32' W 122°41'0 0.0
2017-Feb-12 03:32N 45°32' W 122°41'0 0.0
2017-Feb-12 02:33N 45°32' W 122°41'0 0.0
2017-Feb-12 01:30N 45°32' W 122°41'0 0.0
2017-Feb-12 00:31N 45°32' W 122°41'0 0.0
2017-Feb-11 23:32N 45°32' W 122°41'0 0.0
2017-Feb-11 22:20N 45°32' W 122°41'0 0.0
2017-Feb-11 21:33N 45°32' W 122°41'0 0.0
2017-Feb-11 20:33N 45°32' W 122°41'0 0.0
2017-Feb-11 19:31N 45°32' W 122°41'0 0.0
2017-Feb-11 18:32N 45°32' W 122°41'0 0.0
2017-Feb-11 17:32N 45°32' W 122°41'0 0.0
2017-Feb-11 16:33N 45°32' W 122°41'0 0.0
2017-Feb-11 15:31N 45°32' W 122°41'0 0.0
2017-Feb-11 14:31N 45°32' W 122°41'0 0.0
2017-Feb-11 13:31N 45°32' W 122°41'0 0.0
2017-Feb-11 12:32N 45°32' W 122°41'0 0.0
2017-Feb-11 11:24N 45°32' W 122°41'0 0.0
2017-Feb-11 10:33N 45°32' W 122°41'0 0.0
2017-Feb-11 09:31N 45°32' W 122°41'0 0.0
2017-Feb-11 08:29N 45°32' W 122°41'0 0.0
2017-Feb-11 07:29N 45°32' W 122°41'0 0.0
2017-Feb-11 06:33N 45°32' W 122°41'0 0.0
2017-Feb-11 05:31N 45°32' W 122°41'0 0.0
2017-Feb-11 04:25N 45°32' W 122°41'0 0.0
2017-Feb-11 03:32N 45°32' W 122°41'0 0.0
2017-Feb-11 02:32N 45°32' W 122°41'0 0.0
2017-Feb-11 01:33N 45°32' W 122°41'0 0.0
2017-Feb-11 00:31N 45°32' W 122°41'0 0.0
2017-Feb-10 23:31N 45°32' W 122°41'0 0.0
2017-Feb-10 22:29N 45°32' W 122°41'0 0.0
2017-Feb-10 21:33N 45°32' W 122°41'0 0.0
2017-Feb-10 20:33N 45°32' W 122°41'0 0.0
2017-Feb-10 19:31N 45°32' W 122°41'0 0.0
2017-Feb-10 18:32N 45°32' W 122°41'0 0.0
2017-Feb-10 17:32N 45°32' W 122°41'0 0.0
2017-Feb-10 16:33N 45°32' W 122°41'0 0.0
2017-Feb-10 15:32N 45°32' W 122°41'0 0.0
2017-Feb-10 14:24N 45°32' W 122°41'0 0.0
2017-Feb-10 13:12N 45°32' W 122°41'0 0.0
2017-Feb-10 12:31N 45°32' W 122°41'0 0.0
2017-Feb-10 11:31N 45°32' W 122°41'0 0.0
2017-Feb-10 10:32N 45°32' W 122°41'0 0.0
2017-Feb-10 09:30N 45°32' W 122°41'0 0.0
2017-Feb-10 08:24N 45°32' W 122°41'0 0.0
2017-Feb-10 07:31N 45°32' W 122°41'0 0.0
2017-Feb-10 06:31N 45°32' W 122°41'0 0.0
2017-Feb-10 05:32N 45°32' W 122°41'0 0.0
2017-Feb-10 04:27N 45°32' W 122°41'0 0.0
2017-Feb-10 03:33N 45°32' W 122°41'0 0.0
2017-Feb-10 02:31N 45°32' W 122°41'0 0.0
2017-Feb-10 01:32N 45°32' W 122°41'0 0.0
2017-Feb-10 00:32N 45°32' W 122°41'0 0.0
2017-Feb-09 23:33N 45°32' W 122°41'0 0.0
2017-Feb-09 22:27N 45°32' W 122°41'0 0.0
2017-Feb-09 21:31N 45°32' W 122°41'0 0.0
2017-Feb-09 20:23N 45°32' W 122°41'0 0.0
2017-Feb-09 19:32N 45°32' W 122°41'0 0.0
2017-Feb-09 18:27N 45°32' W 122°41'0 0.0
2017-Feb-09 17:30N 45°32' W 122°41'0 0.0
2017-Feb-09 16:31N 45°32' W 122°41'0 0.0
2017-Feb-09 15:32N 45°32' W 122°41'0 0.0
2017-Feb-09 14:32N 45°32' W 122°41'0 0.0
2017-Feb-09 13:33N 45°32' W 122°41'0 0.0
2017-Feb-09 12:33N 45°32' W 122°41'0 0.0
2017-Feb-09 11:31N 45°32' W 122°41'0 0.0
2017-Feb-09 10:26N 45°32' W 122°41'0 0.0
2017-Feb-09 09:29N 45°32' W 122°41'0 0.0
2017-Feb-09 08:30N 45°32' W 122°41'0 0.0
2017-Feb-09 07:25N 45°32' W 122°41'0 0.0
2017-Feb-09 06:31N 45°32' W 122°41'0 0.0
2017-Feb-09 05:26N 45°32' W 122°41'0 0.0
2017-Feb-09 04:33N 45°32' W 122°41'0 0.0
2017-Feb-09 03:30N 45°32' W 122°41'0 0.0
2017-Feb-09 02:31N 45°32' W 122°41'0 0.0
2017-Feb-09 01:32N 45°32' W 122°41'0 0.0
2017-Feb-09 00:32N 45°32' W 122°41'0 0.0
2017-Feb-08 23:24N 45°32' W 122°41'0 0.0
2017-Feb-08 22:21N 45°32' W 122°41'0 0.0
2017-Feb-08 21:22N 45°32' W 122°41'0 0.0
2017-Feb-08 20:32N 45°32' W 122°41'0 0.0
2017-Feb-08 19:32N 45°32' W 122°41'0 0.0
2017-Feb-08 18:33N 45°32' W 122°41'0 0.0
2017-Feb-08 17:28N 45°32' W 122°41'0 0.0
2017-Feb-08 16:31N 45°32' W 122°41'0 0.0
2017-Feb-08 15:29N 45°32' W 122°41'0 0.0
2017-Feb-08 14:30N 45°32' W 122°41'0 0.0
2017-Feb-08 13:24N 45°32' W 122°41'0 0.0
2017-Feb-08 12:16N 45°32' W 122°41'0 0.0
2017-Feb-08 11:32N 45°32' W 122°41'0 0.0
2017-Feb-08 10:32N 45°32' W 122°41'0 0.0
2017-Feb-08 09:33N 45°32' W 122°41'0 0.0
2017-Feb-08 08:33N 45°32' W 122°41'0 0.0
2017-Feb-08 07:31N 45°32' W 122°41'0 0.0
2017-Feb-08 06:23N 45°32' W 122°41'0 0.0
2017-Feb-08 05:29N 45°32' W 122°41'0 0.0
2017-Feb-08 04:33N 45°32' W 122°41'0 0.0
2017-Feb-08 03:31N 45°32' W 122°41'0 0.0
2017-Feb-08 02:31N 45°32' W 122°41'0 0.0
2017-Feb-08 01:32N 45°32' W 122°41'0 0.0
2017-Feb-08 00:32N 45°32' W 122°41'0 0.0
2017-Feb-07 23:24N 45°32' W 122°41'0 0.0
2017-Feb-07 22:28N 45°32' W 122°41'0 0.0
2017-Feb-07 21:28N 45°32' W 122°41'0 0.0
2017-Feb-07 20:32N 45°32' W 122°41'0 0.0
2017-Feb-07 19:27N 45°32' W 122°41'0 0.0
2017-Feb-07 18:33N 45°32' W 122°41'0 0.0
2017-Feb-07 17:31N 45°32' W 122°41'0 0.0
2017-Feb-07 16:25N 45°32' W 122°41'0 0.0
2017-Feb-07 15:32N 45°32' W 122°41'0 0.0
2017-Feb-07 14:33N 45°32' W 122°41'0 0.0
2017-Feb-07 13:33N 45°32' W 122°41'0 0.0
2017-Feb-07 12:28N 45°32' W 122°41'0 0.0
2017-Feb-07 11:31N 45°32' W 122°41'0 0.0
2017-Feb-07 10:32N 45°32' W 122°41'0 0.0
2017-Feb-07 09:30N 45°32' W 122°41'0 0.0
2017-Feb-07 08:33N 45°32' W 122°41'3 3.4
2017-Feb-07 07:34N 45°34' W 122°44'5 4.6
2017-Feb-07 06:33N 45°39' W 122°45'2 1.7
2017-Feb-07 05:30N 45°38' W 122°43'0 0.0
2017-Feb-07 04:31N 45°38' W 122°43'0 0.0
2017-Feb-07 03:31N 45°38' W 122°43'0 0.0
2017-Feb-07 02:32N 45°38' W 122°43'0 0.0
2017-Feb-07 01:33N 45°38' W 122°43'0 0.0
2017-Feb-07 00:33N 45°38' W 122°43'0 0.0
2017-Feb-06 23:28N 45°38' W 122°43'0 0.0
2017-Feb-06 22:32N 45°38' W 122°43'0 0.0
2017-Feb-06 21:29N 45°38' W 122°43'0 0.0
2017-Feb-06 20:30N 45°38' W 122°43'0 0.0
2017-Feb-06 19:33N 45°38' W 122°43'0 0.0
2017-Feb-06 18:31N 45°38' W 122°43'0 0.0
2017-Feb-06 17:32N 45°38' W 122°43'0 0.0
2017-Feb-06 16:32N 45°38' W 122°43'0 0.0
2017-Feb-06 15:33N 45°38' W 122°43'0 0.0
2017-Feb-06 14:31N 45°38' W 122°43'0 0.0
2017-Feb-06 13:31N 45°38' W 122°43'0 0.0
2017-Feb-06 12:32N 45°38' W 122°43'0 0.0
2017-Feb-06 11:33N 45°38' W 122°43'0 0.0
2017-Feb-06 10:30N 45°38' W 122°43'0 0.0
2017-Feb-06 09:31N 45°38' W 122°43'0 0.0
2017-Feb-06 08:31N 45°38' W 122°43'0 0.0
2017-Feb-06 07:32N 45°38' W 122°43'0 0.0
2017-Feb-06 06:33N 45°38' W 122°43'0 0.0
2017-Feb-06 05:27N 45°38' W 122°43'0 0.0
2017-Feb-06 04:22N 45°38' W 122°43'0 0.0
2017-Feb-06 03:32N 45°38' W 122°43'0 0.0
2017-Feb-06 02:32N 45°38' W 122°43'0 0.0
2017-Feb-06 01:33N 45°38' W 122°43'0 0.0
2017-Feb-06 00:31N 45°38' W 122°43'0 0.0
2017-Feb-05 23:31N 45°38' W 122°43'0 0.0
2017-Feb-05 22:32N 45°38' W 122°43'0 0.0
2017-Feb-05 21:33N 45°38' W 122°43'0 0.0
2017-Feb-05 20:33N 45°38' W 122°43'0 0.0
2017-Feb-05 19:31N 45°38' W 122°43'0 0.0
2017-Feb-05 18:32N 45°38' W 122°43'0 0.0
2017-Feb-05 17:26N 45°38' W 122°43'0 0.0
2017-Feb-05 16:33N 45°38' W 122°43'0 0.0
2017-Feb-05 15:31N 45°38' W 122°43'  
Track history (hours):
 
Tides and Currents Weather Stations Pressure Air Temp Water Temp Dewpoint Dewpoint Depression Visibility Wind Speed Wind Dir Waves Ship Positions

Moku Pahu

Owner: American Ship Management, LLC., Concord, CA. More information available from US FCC via Universal Licensing System and Coast Guard Vessel Documentation Center.

Last reported at 2017-Feb-15 15:05 UTC. Time now 2017-Feb-22 19:54 UTC.
Position N 48°16' W 125°55'.

Type: Ship. MMSI: 366857000.

Date/timePositionNaut miles runAvg speedWind from/ knotsBaromVisibWave heightAir tempDewpointWater temp
2017-Feb-15 15:05N 48°16' W 125°55'5 9.4
2017-Feb-15 14:32N 48°17' W 125°48'8 8.7
2017-Feb-15 13:33N 48°19' W 125°35'8 8.0
2017-Feb-15 12:32N 48°21' W 125°23'7 7.5
2017-Feb-15 11:33N 48°23' W 125°12'6 6.4
2017-Feb-15 10:33N 48°27' W 125°05'6 6.3
2017-Feb-15 09:33N 48°31' W 124°57'9 9.3
2017-Feb-15 08:33N 48°30' W 124°43'1313.0
2017-Feb-15 07:33N 48°26' W 124°25'1414.1
2017-Feb-15 06:34N 48°20' W 124°06'1413.5
2017-Feb-15 05:33N 48°17' W 123°46'1413.5
2017-Feb-15 04:33N 48°13' W 123°26'5 4.7
2017-Feb-15 03:31N 48°08' W 123°26'0 0.1
2017-Feb-15 02:31N 48°08' W 123°26'0 0.0
2017-Feb-15 01:29N 48°08' W 123°26'0 0.0
2017-Feb-15 00:33N 48°08' W 123°26'0 0.0
2017-Feb-14 23:33N 48°08' W 123°26'0 0.0
2017-Feb-14 22:22N 48°08' W 123°26'0 0.0
2017-Feb-14 21:31N 48°08' W 123°26'0 0.0
2017-Feb-14 20:33N 48°08' W 123°26'2 1.7
2017-Feb-14 19:33N 48°08' W 123°23'7 6.6
2017-Feb-14 18:33N 48°13' W 123°31'9 8.7
2017-Feb-14 17:33N 48°13' W 123°44'1211.3
2017-Feb-14 16:32N 48°15' W 124°01'1212.7
2017-Feb-14 15:33N 48°21' W 124°18'1212.5
2017-Feb-14 14:33N 48°26' W 124°35'1212.4
2017-Feb-14 13:33N 48°29' W 124°53'1110.9
2017-Feb-14 12:33N 48°21' W 125°05'1513.2
2017-Feb-14 11:25N 48°06' W 125°10'1613.2
2017-Feb-14 10:11N 47°51' W 125°17'913.6
2017-Feb-14 09:33N 47°43' W 125°11'1312.9
2017-Feb-14 08:33N 47°32' W 125°02'1313.0
2017-Feb-14 07:33N 47°20' W 124°55'1312.5
2017-Feb-14 06:33N 47°08' W 124°48'1212.4
2017-Feb-14 05:33N 46°57' W 124°39'1211.9
2017-Feb-14 04:33N 46°46' W 124°37'1312.6
2017-Feb-14 03:33N 46°34' W 124°30'1212.5
2017-Feb-14 02:33N 46°23' W 124°22'1212.3
2017-Feb-14 01:33N 46°12' W 124°13'1111.1
2017-Feb-14 00:33N 46°13' W 123°57'10 9.8
2017-Feb-13 23:33N 46°14' W 123°43'1111.1
2017-Feb-13 22:33N 46°16' W 123°27'10 9.6
2017-Feb-13 21:33N 46°09' W 123°17'1110.9
2017-Feb-13 20:33N 46°08' W 123°02'1110.6
2017-Feb-13 19:33N 46°01' W 122°51'1212.0
2017-Feb-13 18:33N 45°49' W 122°48'1110.7
2017-Feb-13 17:33N 45°38' W 122°47'7 6.9
2017-Feb-13 16:33N 45°33' W 122°41'1 0.7
2017-Feb-13 15:30N 45°32' W 122°41'0 0.0
2017-Feb-13 14:33N 45°32' W 122°41'0 0.0
2017-Feb-13 13:31N 45°32' W 122°41'0 0.0
2017-Feb-13 12:32N 45°32' W 122°41'0 0.0
2017-Feb-13 11:32N 45°32' W 122°41'0 0.0
2017-Feb-13 10:33N 45°32' W 122°41'0 0.0
2017-Feb-13 09:34N 45°32' W 122°41'0 0.0
2017-Feb-13 08:31N 45°32' W 122°41'0 0.0
2017-Feb-13 07:32N 45°32' W 122°41'0 0.0
2017-Feb-13 06:29N 45°32' W 122°41'0 0.0
2017-Feb-13 05:33N 45°32' W 122°41'0 0.0
2017-Feb-13 04:31N 45°32' W 122°41'0 0.0
2017-Feb-13 03:25N 45°32' W 122°41'0 0.0
2017-Feb-13 02:32N 45°32' W 122°41'0 0.0
2017-Feb-13 01:33N 45°32' W 122°41'0 0.0
2017-Feb-13 00:33N 45°32' W 122°41'0 0.0
2017-Feb-12 23:31N 45°32' W 122°41'0 0.0
2017-Feb-12 22:32N 45°32' W 122°41'0 0.0
2017-Feb-12 21:32N 45°32' W 122°41'0 0.0
2017-Feb-12 20:33N 45°32' W 122°41'0 0.0
2017-Feb-12 19:31N 45°32' W 122°41'0 0.0
2017-Feb-12 18:31N 45°32' W 122°41'0 0.0
2017-Feb-12 17:32N 45°32' W 122°41'0 0.0
2017-Feb-12 16:33N 45°32' W 122°41'0 0.0
2017-Feb-12 15:33N 45°32' W 122°41'0 0.0
2017-Feb-12 14:31N 45°32' W 122°41'0 0.0
2017-Feb-12 13:32N 45°32' W 122°41'0 0.0
2017-Feb-12 12:29N 45°32' W 122°41'0 0.0
2017-Feb-12 11:33N 45°32' W 122°41'0 0.0
2017-Feb-12 10:28N 45°32' W 122°41'0 0.0
2017-Feb-12 09:31N 45°32' W 122°41'0 0.0
2017-Feb-12 08:32N 45°32' W 122°41'0 0.0
2017-Feb-12 07:26N 45°32' W 122°41'0 0.0
2017-Feb-12 06:33N 45°32' W 122°41'0 0.0
2017-Feb-12 05:31N 45°32' W 122°41'0 0.0
2017-Feb-12 04:31N 45°32' W 122°41'0 0.0
2017-Feb-12 03:32N 45°32' W 122°41'0 0.0
2017-Feb-12 02:33N 45°32' W 122°41'0 0.0
2017-Feb-12 01:30N 45°32' W 122°41'0 0.0
2017-Feb-12 00:31N 45°32' W 122°41'0 0.0
2017-Feb-11 23:32N 45°32' W 122°41'0 0.0
2017-Feb-11 22:20N 45°32' W 122°41'0 0.0
2017-Feb-11 21:33N 45°32' W 122°41'0 0.0
2017-Feb-11 20:33N 45°32' W 122°41'0 0.0
2017-Feb-11 19:31N 45°32' W 122°41'0 0.0
2017-Feb-11 18:32N 45°32' W 122°41'0 0.0
2017-Feb-11 17:32N 45°32' W 122°41'0 0.0
2017-Feb-11 16:33N 45°32' W 122°41'0 0.0
2017-Feb-11 15:31N 45°32' W 122°41'0 0.0
2017-Feb-11 14:31N 45°32' W 122°41'0 0.0
2017-Feb-11 13:31N 45°32' W 122°41'0 0.0
2017-Feb-11 12:32N 45°32' W 122°41'0 0.0
2017-Feb-11 11:24N 45°32' W 122°41'0 0.0
2017-Feb-11 10:33N 45°32' W 122°41'0 0.0
2017-Feb-11 09:31N 45°32' W 122°41'0 0.0
2017-Feb-11 08:29N 45°32' W 122°41'0 0.0
2017-Feb-11 07:29N 45°32' W 122°41'0 0.0
2017-Feb-11 06:33N 45°32' W 122°41'0 0.0
2017-Feb-11 05:31N 45°32' W 122°41'0 0.0
2017-Feb-11 04:25N 45°32' W 122°41'0 0.0
2017-Feb-11 03:32N 45°32' W 122°41'0 0.0
2017-Feb-11 02:32N 45°32' W 122°41'0 0.0
2017-Feb-11 01:33N 45°32' W 122°41'0 0.0
2017-Feb-11 00:31N 45°32' W 122°41'0 0.0
2017-Feb-10 23:31N 45°32' W 122°41'0 0.0
2017-Feb-10 22:29N 45°32' W 122°41'0 0.0
2017-Feb-10 21:33N 45°32' W 122°41'0 0.0
2017-Feb-10 20:33N 45°32' W 122°41'0 0.0
2017-Feb-10 19:31N 45°32' W 122°41'0 0.0
2017-Feb-10 18:32N 45°32' W 122°41'0 0.0
2017-Feb-10 17:32N 45°32' W 122°41'0 0.0
2017-Feb-10 16:33N 45°32' W 122°41'0 0.0
2017-Feb-10 15:32N 45°32' W 122°41'0 0.0
2017-Feb-10 14:24N 45°32' W 122°41'0 0.0
2017-Feb-10 13:12N 45°32' W 122°41'0 0.0
2017-Feb-10 12:31N 45°32' W 122°41'0 0.0
2017-Feb-10 11:31N 45°32' W 122°41'0 0.0
2017-Feb-10 10:32N 45°32' W 122°41'0 0.0
2017-Feb-10 09:30N 45°32' W 122°41'0 0.0
2017-Feb-10 08:24N 45°32' W 122°41'0 0.0
2017-Feb-10 07:31N 45°32' W 122°41'0 0.0
2017-Feb-10 06:31N 45°32' W 122°41'0 0.0
2017-Feb-10 05:32N 45°32' W 122°41'0 0.0
2017-Feb-10 04:27N 45°32' W 122°41'0 0.0
2017-Feb-10 03:33N 45°32' W 122°41'0 0.0
2017-Feb-10 02:31N 45°32' W 122°41'0 0.0
2017-Feb-10 01:32N 45°32' W 122°41'0 0.0
2017-Feb-10 00:32N 45°32' W 122°41'0 0.0
2017-Feb-09 23:33N 45°32' W 122°41'0 0.0
2017-Feb-09 22:27N 45°32' W 122°41'0 0.0
2017-Feb-09 21:31N 45°32' W 122°41'0 0.0
2017-Feb-09 20:23N 45°32' W 122°41'0 0.0
2017-Feb-09 19:32N 45°32' W 122°41'0 0.0
2017-Feb-09 18:27N 45°32' W 122°41'0 0.0
2017-Feb-09 17:30N 45°32' W 122°41'0 0.0
2017-Feb-09 16:31N 45°32' W 122°41'0 0.0
2017-Feb-09 15:32N 45°32' W 122°41'0 0.0
2017-Feb-09 14:32N 45°32' W 122°41'0 0.0
2017-Feb-09 13:33N 45°32' W 122°41'0 0.0
2017-Feb-09 12:33N 45°32' W 122°41'0 0.0
2017-Feb-09 11:31N 45°32' W 122°41'0 0.0
2017-Feb-09 10:26N 45°32' W 122°41'0 0.0
2017-Feb-09 09:29N 45°32' W 122°41'0 0.0
2017-Feb-09 08:30N 45°32' W 122°41'0 0.0
2017-Feb-09 07:25N 45°32' W 122°41'0 0.0
2017-Feb-09 06:31N 45°32' W 122°41'0 0.0
2017-Feb-09 05:26N 45°32' W 122°41'0 0.0
2017-Feb-09 04:33N 45°32' W 122°41'0 0.0
2017-Feb-09 03:30N 45°32' W 122°41'0 0.0
2017-Feb-09 02:31N 45°32' W 122°41'0 0.0
2017-Feb-09 01:32N 45°32' W 122°41'0 0.0
2017-Feb-09 00:32N 45°32' W 122°41'0 0.0
2017-Feb-08 23:24N 45°32' W 122°41'0 0.0
2017-Feb-08 22:21N 45°32' W 122°41'0 0.0
2017-Feb-08 21:22N 45°32' W 122°41'0 0.0
2017-Feb-08 20:32N 45°32' W 122°41'0 0.0
2017-Feb-08 19:32N 45°32' W 122°41'0 0.0
2017-Feb-08 18:33N 45°32' W 122°41'0 0.0
2017-Feb-08 17:28N 45°32' W 122°41'0 0.0
2017-Feb-08 16:31N 45°32' W 122°41'0 0.0
2017-Feb-08 15:29N 45°32' W 122°41'0 0.0
2017-Feb-08 14:30N 45°32' W 122°41'0 0.0
2017-Feb-08 13:24N 45°32' W 122°41'0 0.0
2017-Feb-08 12:16N 45°32' W 122°41'0 0.0
2017-Feb-08 11:32N 45°32' W 122°41'0 0.0
2017-Feb-08 10:32N 45°32' W 122°41'0 0.0
2017-Feb-08 09:33N 45°32' W 122°41'0 0.0
2017-Feb-08 08:33N 45°32' W 122°41'0 0.0
2017-Feb-08 07:31N 45°32' W 122°41'0 0.0
2017-Feb-08 06:23N 45°32' W 122°41'0 0.0
2017-Feb-08 05:29N 45°32' W 122°41'0 0.0
2017-Feb-08 04:33N 45°32' W 122°41'0 0.0
2017-Feb-08 03:31N 45°32' W 122°41'0 0.0
2017-Feb-08 02:31N 45°32' W 122°41'0 0.0
2017-Feb-08 01:32N 45°32' W 122°41'0 0.0
2017-Feb-08 00:32N 45°32' W 122°41'0 0.0
2017-Feb-07 23:24N 45°32' W 122°41'0 0.0
2017-Feb-07 22:28N 45°32' W 122°41'0 0.0
2017-Feb-07 21:28N 45°32' W 122°41'0 0.0
2017-Feb-07 20:32N 45°32' W 122°41'0 0.0
2017-Feb-07 19:27N 45°32' W 122°41'0 0.0
2017-Feb-07 18:33N 45°32' W 122°41'0 0.0
2017-Feb-07 17:31N 45°32' W 122°41'0 0.0
2017-Feb-07 16:25N 45°32' W 122°41'0 0.0
2017-Feb-07 15:32N 45°32' W 122°41'0 0.0
2017-Feb-07 14:33N 45°32' W 122°41'0 0.0
2017-Feb-07 13:33N 45°32' W 122°41'0 0.0
2017-Feb-07 12:28N 45°32' W 122°41'0 0.0
2017-Feb-07 11:31N 45°32' W 122°41'0 0.0
2017-Feb-07 10:32N 45°32' W 122°41'0 0.0
2017-Feb-07 09:30N 45°32' W 122°41'0 0.0
2017-Feb-07 08:33N 45°32' W 122°41'3 3.4
2017-Feb-07 07:34N 45°34' W 122°44'5 4.6
2017-Feb-07 06:33N 45°39' W 122°45'2 1.7
2017-Feb-07 05:30N 45°38' W 122°43'0 0.0
2017-Feb-07 04:31N 45°38' W 122°43'0 0.0
2017-Feb-07 03:31N 45°38' W 122°43'0 0.0
2017-Feb-07 02:32N 45°38' W 122°43'0 0.0
2017-Feb-07 01:33N 45°38' W 122°43'0 0.0
2017-Feb-07 00:33N 45°38' W 122°43'0 0.0
2017-Feb-06 23:28N 45°38' W 122°43'0 0.0
2017-Feb-06 22:32N 45°38' W 122°43'0 0.0
2017-Feb-06 21:29N 45°38' W 122°43'0 0.0
2017-Feb-06 20:30N 45°38' W 122°43'0 0.0
2017-Feb-06 19:33N 45°38' W 122°43'0 0.0
2017-Feb-06 18:31N 45°38' W 122°43'0 0.0
2017-Feb-06 17:32N 45°38' W 122°43'0 0.0
2017-Feb-06 16:32N 45°38' W 122°43'0 0.0
2017-Feb-06 15:33N 45°38' W 122°43'0 0.0
2017-Feb-06 14:31N 45°38' W 122°43'0 0.0
2017-Feb-06 13:31N 45°38' W 122°43'0 0.0
2017-Feb-06 12:32N 45°38' W 122°43'0 0.0
2017-Feb-06 11:33N 45°38' W 122°43'0 0.0
2017-Feb-06 10:30N 45°38' W 122°43'0 0.0
2017-Feb-06 09:31N 45°38' W 122°43'0 0.0
2017-Feb-06 08:31N 45°38' W 122°43'0 0.0
2017-Feb-06 07:32N 45°38' W 122°43'0 0.0
2017-Feb-06 06:33N 45°38' W 122°43'0 0.0
2017-Feb-06 05:27N 45°38' W 122°43'0 0.0
2017-Feb-06 04:22N 45°38' W 122°43'0 0.0
2017-Feb-06 03:32N 45°38' W 122°43'0 0.0
2017-Feb-06 02:32N 45°38' W 122°43'0 0.0
2017-Feb-06 01:33N 45°38' W 122°43'0 0.0
2017-Feb-06 00:31N 45°38' W 122°43'0 0.0
2017-Feb-05 23:31N 45°38' W 122°43'0 0.0
2017-Feb-05 22:32N 45°38' W 122°43'0 0.0
2017-Feb-05 21:33N 45°38' W 122°43'0 0.0
2017-Feb-05 20:33N 45°38' W 122°43'0 0.0
2017-Feb-05 19:31N 45°38' W 122°43'0 0.0
2017-Feb-05 18:32N 45°38' W 122°43'0 0.0
2017-Feb-05 17:26N 45°38' W 122°43'0 0.0
2017-Feb-05 16:33N 45°38' W 122°43'0 0.0
2017-Feb-05 15:31N 45°38' W 122°43'  

Dump ship's entire track history